createdAt,value
2022-09-22T00:00:16.693Z,99095.75
2022-09-22T00:05:18.493Z,99093.16
2022-09-22T00:10:21.685Z,99089.06
2022-09-22T00:15:23.512Z,99084.16
2022-09-22T00:20:25.414Z,99079.28
2022-09-22T00:25:27.467Z,99083.66
2022-09-22T00:30:31.335Z,99078.59
2022-09-22T00:35:33.176Z,99079.56
2022-09-22T00:40:35.993Z,99079.84
2022-09-22T00:45:37.967Z,99068.13
2022-09-22T00:50:40.664Z,99064.84
2022-09-22T00:55:59.562Z,99059.81
2022-09-22T01:01:02.367Z,99059.97
2022-09-22T01:06:06.906Z,99061.06
2022-09-22T01:11:08.726Z,99059.44
2022-09-22T01:16:34.829Z,99055.19
2022-09-22T01:22:14.164Z,99053.56
2022-09-22T01:27:27.696Z,99052.09
2022-09-22T01:33:02.782Z,99051.56
2022-09-22T01:38:07.647Z,99047.47
2022-09-22T01:43:36.336Z,99044.34
2022-09-22T01:48:42.725Z,99051.63
2022-09-22T01:53:52.622Z,99059.56
2022-09-22T01:58:57.893Z,99055.63
2022-09-22T02:04:09.943Z,99055.91
2022-09-22T02:09:17.114Z,99046.91
2022-09-22T02:14:19.286Z,99047.34
2022-09-22T02:19:25.281Z,99046.81
2022-09-22T02:24:34.623Z,99046.44
2022-09-22T02:29:40.946Z,99043.47
2022-09-22T02:34:45.909Z,99037.88
2022-09-22T02:39:50.565Z,99033.94
2022-09-22T02:45:12.626Z,99036.16
2022-09-22T02:50:19.601Z,99039.03
2022-09-22T02:55:21.501Z,99035.78
2022-09-22T03:00:23.287Z,99031.53
2022-09-22T03:05:25.518Z,99027.31
2022-09-22T03:10:27.420Z,99025.97
2022-09-22T03:15:29.994Z,99025.97
2022-09-22T03:20:31.775Z,99021.06
2022-09-22T03:25:33.586Z,99014.38
2022-09-22T03:30:37.376Z,99016.31
2022-09-22T03:35:39.306Z,99015.63
2022-09-22T03:40:41.644Z,99014.03
2022-09-22T03:45:43.797Z,99018.53
2022-09-22T03:50:45.677Z,99017.72
2022-09-22T03:55:47.495Z,99024.69
2022-09-22T04:00:49.978Z,99016.22
2022-09-22T04:05:52.007Z,99016.66
2022-09-22T04:10:54.271Z,99016.94
2022-09-22T04:15:56.407Z,99019.00
2022-09-22T04:20:59.313Z,99017.38
2022-09-22T04:26:02.182Z,99018.31
2022-09-22T04:31:04.204Z,99013.28
2022-09-22T04:36:06.371Z,99009.00
2022-09-22T04:41:08.302Z,99010.78
2022-09-22T04:46:10.165Z,99008.34
2022-09-22T04:51:12.094Z,99012.03
2022-09-22T04:56:14.104Z,99012.19
2022-09-22T05:01:15.998Z,99021.06
2022-09-22T05:06:17.897Z,99023.09
2022-09-22T05:11:24.817Z,99021.47
2022-09-22T05:16:26.797Z,99030.88
2022-09-22T05:21:28.963Z,99040.97
2022-09-22T05:26:33.533Z,99044.94
2022-09-22T05:31:35.466Z,99044.50
2022-09-22T05:36:37.565Z,99049.84
2022-09-22T05:41:39.981Z,99055.28
2022-09-22T05:46:42.434Z,99059.91
2022-09-22T05:51:44.426Z,99059.03
2022-09-22T05:56:46.377Z,99055.28
2022-09-22T06:01:48.601Z,99052.50
2022-09-22T06:06:50.483Z,99056.97
2022-09-22T06:11:53.543Z,99054.22
2022-09-22T06:16:55.963Z,99054.22
2022-09-22T06:21:57.690Z,99052.47
2022-09-22T06:26:59.451Z,99051.22
2022-09-22T06:32:02.112Z,99057.59
2022-09-22T06:37:10.134Z,99056.88
2022-09-22T06:42:12.477Z,99054.88
2022-09-22T06:47:14.656Z,99045.03
2022-09-22T06:52:16.454Z,99055.78
2022-09-22T06:57:19.202Z,99046.44
2022-09-22T07:02:28.506Z,99052.25
2022-09-22T07:07:32.249Z,99056.53
2022-09-22T07:12:34.580Z,99067.03
2022-09-22T07:17:37.025Z,99062.56
2022-09-22T07:22:39.376Z,99058.38
2022-09-22T07:27:41.203Z,99057.81
2022-09-22T07:32:43.007Z,99054.47
2022-09-22T07:37:46.722Z,99057.78
2022-09-22T07:42:49.820Z,99058.50
2022-09-22T07:48:10.332Z,99063.63
2022-09-22T07:53:12.156Z,99058.16
2022-09-22T07:58:17.247Z,99060.19
2022-09-22T08:03:19.420Z,99051.16
2022-09-22T08:08:21.429Z,99061.44
2022-09-22T08:13:23.788Z,99059.22
2022-09-22T08:18:26.200Z,99062.34
2022-09-22T08:23:31.481Z,99062.81
2022-09-22T08:28:33.825Z,99062.81
2022-09-22T08:33:35.828Z,99061.69
2022-09-22T08:38:39.103Z,99063.66
2022-09-22T08:43:47.097Z,99068.72
2022-09-22T08:49:09.227Z,99063.38
2022-09-22T08:54:11.124Z,99067.69
2022-09-22T08:59:23.187Z,99062.19
2022-09-22T09:04:42.680Z,99069.66
2022-09-22T09:09:58.283Z,99066.41
2022-09-22T09:15:25.074Z,99067.81
2022-09-22T09:20:39.099Z,99062.59
2022-09-22T09:25:42.759Z,99068.47
2022-09-22T09:30:54.338Z,99066.09
2022-09-22T09:35:56.434Z,99067.22
2022-09-22T09:41:18.142Z,99060.25
2022-09-22T09:46:44.738Z,99062.84
2022-09-22T09:51:57.117Z,99065.13
2022-09-22T09:57:17.120Z,99068.41
2022-09-22T10:02:28.330Z,99061.56
2022-09-22T10:07:45.200Z,99053.72
2022-09-22T10:12:47.178Z,99048.00
2022-09-22T10:17:49.372Z,99047.16
2022-09-22T10:22:53.904Z,99046.97
2022-09-22T10:28:13.300Z,99042.91
2022-09-22T10:33:20.516Z,99029.66
2022-09-22T10:38:29.439Z,99034.38
2022-09-22T10:44:15.494Z,99029.59
2022-09-22T10:49:46.933Z,99028.47
2022-09-22T10:54:54.676Z,99028.16
2022-09-22T11:00:26.232Z,99021.25
2022-09-22T11:06:06.921Z,99018.56
2022-09-22T11:11:48.162Z,99012.78
2022-09-22T11:17:00.432Z,99010.13
2022-09-22T11:22:39.844Z,99016.91
2022-09-22T11:27:56.893Z,99020.41
2022-09-22T11:33:16.863Z,99009.91
2022-09-22T11:38:59.914Z,99011.41
2022-09-22T11:44:12.052Z,99010.00
2022-09-22T11:49:46.042Z,99012.63
2022-09-22T11:55:26.675Z,98998.56
2022-09-22T12:00:36.065Z,98992.84
2022-09-22T12:05:48.613Z,98984.81
2022-09-22T12:10:52.046Z,98984.94
2022-09-22T12:16:15.370Z,98974.41
2022-09-22T12:21:32.497Z,98979.63
2022-09-22T12:26:38.044Z,98974.16
2022-09-22T12:31:41.854Z,98959.50
2022-09-22T12:36:44.333Z,98970.31
2022-09-22T12:41:52.675Z,98971.94
2022-09-22T12:47:06.821Z,98963.13
2022-09-22T12:52:41.774Z,98961.81
2022-09-22T12:57:48.897Z,98955.63
2022-09-22T13:02:51.998Z,98958.56
2022-09-22T13:07:55.885Z,98960.91
2022-09-22T13:13:03.836Z,98958.81
2022-09-22T13:18:35.703Z,98957.38
2022-09-22T13:23:38.116Z,98957.38
2022-09-22T13:28:40.648Z,98955.06
2022-09-22T13:33:43.067Z,98946.50
2022-09-22T13:38:51.090Z,98942.69
2022-09-22T13:44:02.922Z,98941.88
2022-09-22T13:49:08.864Z,98944.34
2022-09-22T13:54:19.415Z,98931.28
2022-09-22T13:59:21.876Z,98934.03
2022-09-22T14:04:26.705Z,98924.69
2022-09-22T14:09:30.343Z,98922.25
2022-09-22T14:14:32.788Z,98913.78
2022-09-22T14:19:43.085Z,98921.59
2022-09-22T14:24:52.302Z,98914.94
2022-09-22T14:29:55.872Z,98917.72
2022-09-22T14:34:59.430Z,98914.59
2022-09-22T14:40:04.879Z,98909.13
2022-09-22T14:45:09.780Z,98916.56
2022-09-22T14:50:19.241Z,98911.34
2022-09-22T14:55:26.958Z,98904.84
2022-09-22T15:00:48.396Z,98902.28
2022-09-22T15:05:50.485Z,98905.59
2022-09-22T15:10:56.204Z,98903.59
2022-09-22T15:15:58.659Z,98900.66
2022-09-22T15:21:11.163Z,98898.03
2022-09-22T15:26:25.123Z,98886.94
2022-09-22T15:31:28.402Z,98891.72
2022-09-22T15:36:32.993Z,98895.78
2022-09-22T15:41:35.112Z,98898.84
2022-09-22T15:46:38.124Z,98893.78
2022-09-22T15:51:39.923Z,98896.13
2022-09-22T15:56:43.315Z,98902.22
2022-09-22T16:01:46.485Z,98900.00
2022-09-22T16:06:57.092Z,98895.50
2022-09-22T16:11:59.746Z,98895.69
2022-09-22T16:17:01.568Z,98884.31
2022-09-22T16:22:03.423Z,98883.84
2022-09-22T16:27:07.480Z,98878.47
2022-09-22T16:32:11.094Z,98882.13
2022-09-22T16:37:12.942Z,98883.13
2022-09-22T16:42:21.549Z,98889.38
2022-09-22T16:47:25.972Z,98877.66
2022-09-22T16:52:32.016Z,98882.91
2022-09-22T16:57:33.952Z,98882.91
2022-09-22T17:02:36.038Z,98887.19
2022-09-22T17:07:37.917Z,98889.00
2022-09-22T17:12:42.968Z,98887.22
2022-09-22T17:17:44.852Z,98883.78
2022-09-22T17:22:47.748Z,98892.44
2022-09-22T17:27:49.541Z,98889.84
2022-09-22T17:32:51.378Z,98900.88
2022-09-22T17:37:53.488Z,98897.28
2022-09-22T17:42:57.267Z,98891.75
2022-09-22T17:48:17.382Z,98901.19
2022-09-22T17:53:38.210Z,98892.41
2022-09-22T17:58:40.014Z,98897.28
2022-09-22T18:03:46.197Z,98892.72
2022-09-22T18:08:49.089Z,98894.16
2022-09-22T18:13:51.147Z,98895.63
2022-09-22T18:18:58.474Z,98902.28
2022-09-22T18:24:01.158Z,98897.56
2022-09-22T18:29:02.975Z,98903.25
2022-09-22T18:34:07.950Z,98911.53
2022-09-22T18:39:10.082Z,98912.97
2022-09-22T18:44:13.443Z,98904.00
2022-09-22T18:49:16.740Z,98900.91
2022-09-22T18:54:21.462Z,98903.97
2022-09-22T18:59:25.896Z,98904.44
2022-09-22T19:04:27.937Z,98904.09
2022-09-22T19:09:29.813Z,98911.41
2022-09-22T19:14:37.042Z,98911.72
2022-09-22T19:19:42.337Z,98904.38
2022-09-22T19:24:47.873Z,98911.03
2022-09-22T19:29:50.758Z,98905.47
2022-09-22T19:34:54.926Z,98904.31
2022-09-22T19:39:56.985Z,98896.81
2022-09-22T19:44:59.261Z,98899.88
2022-09-22T19:50:00.998Z,98895.91
2022-09-22T19:55:02.829Z,98901.28
2022-09-22T20:00:06.007Z,98896.53
2022-09-22T20:05:22.447Z,98904.81
2022-09-22T20:10:25.026Z,98899.09
2022-09-22T20:15:27.690Z,98899.41
2022-09-22T20:20:32.203Z,98898.06
2022-09-22T20:25:34.108Z,98891.56
2022-09-22T20:30:36.045Z,98901.59
2022-09-22T20:35:38.278Z,98897.66
2022-09-22T20:40:40.337Z,98900.56
2022-09-22T20:45:43.533Z,98899.09
2022-09-22T20:50:55.651Z,98897.75
2022-09-22T20:56:01.302Z,98887.81
2022-09-22T21:01:04.311Z,98896.88
2022-09-22T21:06:09.008Z,98892.94
2022-09-22T21:11:16.145Z,98881.22
2022-09-22T21:16:17.954Z,98884.28
2022-09-22T21:21:22.472Z,98881.84
2022-09-22T21:26:24.403Z,98879.69
2022-09-22T21:31:27.078Z,98879.19
2022-09-22T21:36:29.240Z,98873.47
2022-09-22T21:41:31.825Z,98873.75
2022-09-22T21:46:37.324Z,98878.28
2022-09-22T21:51:42.175Z,98870.28
2022-09-22T21:56:44.771Z,98875.78
2022-09-22T22:01:46.709Z,98871.84
2022-09-22T22:06:48.707Z,98873.78
2022-09-22T22:11:56.606Z,98871.47
2022-09-22T22:16:58.667Z,98863.97
2022-09-22T22:22:00.547Z,98859.75
2022-09-22T22:27:06.424Z,98862.66
2022-09-22T22:32:10.667Z,98867.03
2022-09-22T22:37:12.615Z,98865.53
2022-09-22T22:42:14.360Z,98853.53
2022-09-22T22:47:17.231Z,98857.22
2022-09-22T22:52:20.106Z,98849.59
2022-09-22T22:57:21.945Z,98852.47
2022-09-22T23:02:23.827Z,98846.63
2022-09-22T23:07:25.821Z,98851.44
2022-09-22T23:12:27.671Z,98855.00
2022-09-22T23:17:29.563Z,98837.28
2022-09-22T23:22:31.784Z,98838.41
2022-09-22T23:27:33.536Z,98840.34
2022-09-22T23:32:35.423Z,98818.13
2022-09-22T23:37:37.257Z,98827.00
2022-09-22T23:42:39.307Z,98819.66
2022-09-22T23:47:41.666Z,98822.69
2022-09-22T23:52:43.532Z,98815.88
2022-09-22T23:57:45.703Z,98815.34
